This is the latest recevied weather packets stored in our database for station/object F4AMY-13. If no packets are shown the sender has not sent any weather packets the latest 10 day(s).
| Time | Temp. | Humidity | Pressure | Rain* | Wind** | Luminosity | Snow |
|---|---|---|---|---|---|---|---|
| 1777913530 | 13.89° C | 93% | 1011.6 hPa | 0 mm | 0 m/s | 0 W/m² | - |
| 1777913230 | 13.89° C | 93% | 1011.6 hPa | 0 mm | 0 m/s | 0 W/m² | - |
| 1777912930 | 13.89° C | 93% | 1011.2 hPa | 0 mm | 0 m/s | 0 W/m² | - |
| 1777912630 | 13.89° C | 93% | 1011.5 hPa | 0 mm | 0 m/s | 0 W/m² | - |
| 1777912330 | 13.89° C | 93% | 1011.6 hPa | 45.72 mm | 2.24 m/s, ° | 5 W/m² | - |
| 1777912030 | 13.89° C | 93% | 1011.8 hPa | 45.72 mm | 9.83 m/s, ° | 22 W/m² | - |
| 1777911730 | 13.89° C | 93% | 1011.8 hPa | 0 mm | 1.34 m/s, ° | 3 W/m² | - |
| 1777911430 | 13.89° C | 93% | 1011.7 hPa | 0 mm | 1.34 m/s, ° | 3 W/m² | - |
| 1777911130 | 13.89° C | 93% | 1011.8 hPa | 0 mm | 2.24 m/s, ° | 5 W/m² | - |
| 1777910830 | 13.89° C | 93% | 1011.7 hPa | 0 mm | 2.68 m/s, ° | 6 W/m² | - |
| 1777910530 | 13.89° C | 93% | 1011.7 hPa | 0 mm | 12.07 m/s, ° | 27 W/m² | - |
| 1777910230 | 13.89° C | 93% | 1012 hPa | 91.44 mm | 2.68 m/s, ° | 6 W/m² | - |
| 1777909930 | 13.89° C | 93% | 1011.7 hPa | 91.44 mm | 1.79 m/s, ° | 4 W/m² | - |
| 1777909630 | 13.89° C | 92% | 1012 hPa | 182.88 mm | 6.71 m/s, ° | 15 W/m² | - |
| 1777909329 | 13.89° C | - | - | 27.43 mm | - | - | - |
| 1777909029 | 13.89° C | 92% | 1011.7 hPa | 91.44 mm | 7.15 m/s, ° | 16 W/m² | - |
| 1777908729 | 13.89° C | 92% | 1012.1 hPa | 45.72 mm | 10.28 m/s, ° | 23 W/m² | - |
| 1777908429 | 13.89° C | 92% | 1012.2 hPa | 45.72 mm | 2.24 m/s, ° | 5 W/m² | - |
| 1777908129 | 13.89° C | 92% | 1011.9 hPa | 0 mm | 2.68 m/s, ° | 6 W/m² | - |
| 1777907829 | 13.89° C | 92% | 1011.8 hPa | 0 mm | 10.73 m/s, ° | 24 W/m² | - |
| 1777907529 | 13.89° C | 93% | 1011.7 hPa | 45.72 mm | 12.96 m/s, ° | 29 W/m² | - |
| 1777907229 | 13.89° C | 93% | 1011.7 hPa | 45.72 mm | 13.41 m/s, ° | 30 W/m² | - |
| 1777906929 | 13.89° C | 92% | 1011.8 hPa | 0 mm | 9.39 m/s, ° | 21 W/m² | - |
| 1777906629 | 13.89° C | 92% | 1011.8 hPa | 0 mm | 7.6 m/s, ° | 17 W/m² | - |
| 1777906329 | 13.89° C | 92% | 1011.9 hPa | 45.72 mm | 0 m/s | 0 W/m² | - |
* Rain latest hour (hover to see other rain measurements)
** Current wind speed in m/s (hover to see current wind gust speed)